• Join FlightAware (Why Join?)
  • Login
  • US Flag 
07:52PM EDT


 

Airport Tracker/Info


-or-


 

Live Flight TrackerFlight Track Log ✈ CRQ461 ✈ 19-Jun-2013 ✈ CYGK - CYMO

Flight Track Log - Related Links

Times and Time Zones

All times are in EDT time to prevent confusion due to time zone crossing. See the CRQ461 flight status page for this flight to view local times or setup timezone preferences in your user account.

Time Position Orientation Groundspeed Altitude Reporting Facility
EDT Latitude Longitude Course Direction KTS MPH feet Rate Location/Type
09:06AM 44.4000 -76.6500 333° Northwest 110 127 3,300  Level Toronto Center
09:07AM 44.4333 -76.7167 305° West 170 196 3,600 360 Climbing Montreal Center
09:08AM 44.5351 -76.7736 333° Northwest  Level FlightAware Approximate
09:08AM 44.4833 -76.7500 335° Northwest 170 196 4,000  Level Montreal Center
09:09AM 44.5795 -76.8059 333° Northwest  Level FlightAware Approximate
09:09AM 44.5167 -76.7667 340° North 180 207 4,400  Level Montreal Center
09:10AM 44.6239 -76.8381 333° Northwest  Level FlightAware Approximate
09:10AM 44.5667 -76.7833 347° North 180 207 4,900  Level Montreal Center
09:11AM 44.6683 -76.8705 333° Northwest  Level FlightAware Approximate
09:11AM 44.6167 -76.8333 325° Northwest 180 207 5,300  Level Montreal Center
09:12AM 44.6667 -76.8667 335° Northwest 180 207 5,800 360 Climbing Montreal Center
09:13AM 44.7000 -76.9167 313° West 180 207 6,100 300 Climbing Montreal Center
09:14AM 44.7500 -76.9333 347° North 180 207 6,500 420 Climbing Montreal Center
09:15AM 44.8000 -76.9667 335° Northwest 180 207 7,000 480 Climbing Montreal Center
09:16AM 44.8333 -77.0000 325° Northwest 180 207 7,500 420 Climbing Montreal Center
09:17AM 44.8833 -77.0333 335° Northwest 180 207 7,900 240 Climbing Montreal Center
09:18AM 44.9333 -77.0500 347° North 180 207 8,000  Climbing Montreal Center
09:19AM 44.9833 -77.1000 325° Northwest 190 219 8,000  Level Montreal Center
09:20AM 45.0167 -77.1500 313° West 190 219 8,000 -60 Level Montreal Center
09:21AM 45.0500 -77.2000 313° West 190 219 7,900 -60 Descending Montreal Center
09:22AM 45.0833 -77.2500 313° West 190 219 7,900  Level Montreal Center
09:23AM 45.1333 -77.3000 325° Northwest 190 219 7,900  Level Montreal Center
09:24AM 45.1667 -77.3500 313° West 190 219 7,900  Level Montreal Center
09:25AM 45.2000 -77.4000 313° West 190 219 7,900  Level Montreal Center
09:26AM 45.2500 -77.4500 325° Northwest 190 219 8,000  Climbing Montreal Center
09:27AM 45.3000 -77.4667 347° North 190 219 8,000  Level Montreal Center
09:28AM 45.3333 -77.5167 313° West 190 219 8,000  Level Montreal Center
09:29AM 45.3833 -77.5667 325° Northwest 190 219 8,000  Level Montreal Center
09:30AM 45.4167 -77.6167 314° West 180 207 8,000 -60 Level Montreal Center
09:31AM 45.4667 -77.6333 347° North 190 219 7,900 -60 Descending Montreal Center
09:32AM 45.5167 -77.6833 325° Northwest 190 219 7,900  Level Montreal Center
09:33AM 45.5500 -77.7333 314° West 190 219 8,000  Climbing Montreal Center
09:34AM 45.6000 -77.7833 325° Northwest 190 219 8,000  Level Montreal Center
09:35AM 45.6333 -77.8333 314° West 190 219 8,000  Level Montreal Center
09:36AM 45.6667 -77.8500 341° North 190 219 8,100  Climbing Toronto Center
09:37AM 45.7167 -77.8833 335° Northwest 190 219 8,100  Level Toronto Center
09:38AM 45.7500 -77.9333 314° West 190 219 8,100  Level Toronto Center
09:39AM 45.8000 -77.9833 325° Northwest 190 219 8,100  Level Toronto Center
09:40AM 45.8500 -77.9833 360° North 190 219 8,100 -60 Level Toronto Center
09:41AM 45.9000 -78.0000 347° North 190 219 8,000 -60 Descending Toronto Center
09:42AM 45.9500 -78.0333 335° Northwest 190 219 8,000  Level Toronto Center
09:43AM 46.0000 -78.0500 347° North 190 219 8,000  Level Toronto Center
09:44AM 46.0500 -78.0667 347° North 190 219 8,100  Climbing Toronto Center
09:45AM 46.1000 -78.1000 335° Northwest 190 219 8,100 -60 Level Toronto Center
09:46AM 46.1500 -78.1167 347° North 190 219 8,000 -60 Descending Toronto Center
09:47AM 46.2000 -78.1333 347° North 190 219 8,000  Level Toronto Center
09:48AM 46.2500 -78.1667 335° Northwest 190 219 8,000  Level Toronto Center
09:49AM 46.3000 -78.1833 347° North 190 219 8,000  Level Toronto Center
09:50AM 46.3500 -78.1833 360° North 190 219 8,100  Climbing Toronto Center
09:51AM 46.4000 -78.2333 325° Northwest 190 219 8,000 -60 Descending Toronto Center
09:52AM 46.4500 -78.2333 360° North 190 219 8,000  Level Toronto Center
09:53AM 46.5000 -78.2500 347° North 190 219 8,100  Climbing Toronto Center
09:54AM 46.5500 -78.2667 347° North 190 219 8,000 -60 Descending Toronto Center
09:55AM 46.6000 -78.3000 335° Northwest 190 219 8,000  Level Toronto Center
09:56AM 46.6500 -78.3167 347° North 190 219 8,000  Level Toronto Center
09:57AM 46.7000 -78.3500 335° Northwest 190 219 8,000  Level Toronto Center
09:58AM 46.7500 -78.3667 347° North 190 219 8,100  Climbing Toronto Center
09:59AM 46.8000 -78.3833 347° North 190 219 8,000  Descending Toronto Center
10:00AM 46.8667 -78.4167 341° North 190 219 8,100  Climbing Toronto Center
10:01AM 46.9167 -78.4333 347° North 190 219 8,000 -60 Descending Toronto Center
10:02AM 46.9667 -78.4667 336° Northwest 190 219 8,000  Level Toronto Center
10:03AM 47.0167 -78.4833 347° North 190 219 8,000  Level Toronto Center
10:04AM 47.0667 -78.5000 347° North 190 219 8,100  Climbing Toronto Center
10:05AM 47.1167 -78.5000 360° North 190 219 8,000 -60 Descending Toronto Center
10:06AM 47.1667 -78.5333 336° Northwest 190 219 8,000 -60 Level Toronto Center
10:07AM 47.2000 -78.5833 314° West 190 219 7,900 -60 Descending Montreal Center
10:08AM 47.2500 -78.5833 360° North 180 207 7,900  Level Montreal Center
10:09AM 47.3000 -78.6167 336° Northwest 190 219 7,900  Level Montreal Center
10:10AM 47.3500 -78.6500 336° Northwest 190 219 8,000  Climbing Montreal Center
10:11AM 47.4000 -78.6500 360° North 190 219 8,000  Level Montreal Center
10:12AM 47.4500 -78.6667 347° North 180 207 8,000  Level Montreal Center
10:13AM 47.5000 -78.7000 336° Northwest 180 207 8,000  Level Montreal Center
10:14AM 47.5500 -78.7000 360° North 180 207 8,000 -60 Level Montreal Center
10:15AM 47.6000 -78.7333 336° Northwest 190 219 7,900 -60 Descending Montreal Center
10:16AM 47.6500 -78.7667 336° Northwest 190 219 7,900  Level Montreal Center
10:17AM 47.7000 -78.7667 360° North 180 207 7,900  Level Montreal Center
10:18AM 47.7500 -78.7833 347° North 180 207 7,900  Level Montreal Center
10:19AM 47.8000 -78.8167 336° Northwest 190 219 8,000 60 Climbing Montreal Center
10:22AM 47.8779 -78.8413 348° North  Level FlightAware Approximate
10:29AM 48.2320 -78.9672 341° North  Level FlightAware Approximate
10:30AM 48.2811 -78.9927 341° North  Level FlightAware Approximate
10:31AM 48.3302 -79.0182 341° North  Level FlightAware Approximate
10:32AM 48.3792 -79.0438 341° North  Level FlightAware Approximate
10:33AM 48.4283 -79.0695 341° North  Level FlightAware Approximate
10:34AM 48.4773 -79.0952 341° North  Level FlightAware Approximate
10:35AM 48.5264 -79.1209 341° North  Level FlightAware Approximate
10:36AM 48.5755 -79.1462 342° North  Level FlightAware Approximate
10:37AM 48.6247 -79.1711 342° North  Level FlightAware Approximate
10:38AM 48.6740 -79.1960 342° North  Level FlightAware Approximate
10:39AM 48.7232 -79.2209 342° North  Level FlightAware Approximate
10:40AM 48.7725 -79.2460 341° North  Level FlightAware Approximate
10:41AM 48.8218 -79.2711 341° North  Level FlightAware Approximate
10:42AM 48.8711 -79.2963 341° North  Level FlightAware Approximate
10:43AM 48.9204 -79.3215 341° North  Level FlightAware Approximate
10:44AM 48.9697 -79.3467 341° North  Level FlightAware Approximate
10:45AM 49.0189 -79.3720 341° North  Level FlightAware Approximate
10:46AM 49.0682 -79.3974 341° North  Level FlightAware Approximate
10:47AM 49.1175 -79.4228 341° North  Level FlightAware Approximate
10:48AM 49.1667 -79.4483 341° North  Level FlightAware Approximate
10:49AM 49.2160 -79.4738 341° North  Level FlightAware Approximate
10:50AM 49.2652 -79.4993 341° North  Level FlightAware Approximate
10:51AM 49.3144 -79.5249 341° North  Level FlightAware Approximate
10:52AM 49.3637 -79.5506 341° North  Level FlightAware Approximate
10:53AM 49.4129 -79.5763 341° North  Level FlightAware Approximate
10:54AM 49.4621 -79.6021 341° North  Level FlightAware Approximate
10:55AM 49.5113 -79.6279 341° North  Level FlightAware Approximate
10:56AM 49.5606 -79.6538 341° North  Level FlightAware Approximate
10:57AM 49.6097 -79.6797 341° North  Level FlightAware Approximate
10:58AM 49.6590 -79.7057 341° North  Level FlightAware Approximate
10:59AM 49.7081 -79.7317 341° North  Level FlightAware Approximate
11:00AM 49.7573 -79.7578 341° North  Level FlightAware Approximate
11:01AM 49.8065 -79.7839 341° North  Level FlightAware Approximate
11:02AM 49.8557 -79.8101 341° North  Level FlightAware Approximate
11:03AM 49.9049 -79.8363 341° North  Level FlightAware Approximate
11:04AM 49.9540 -79.8626 341° North  Level FlightAware Approximate
11:05AM 50.0032 -79.8889 341° North  Level FlightAware Approximate
11:06AM 50.0523 -79.9153 341° North  Level FlightAware Approximate
11:07AM 50.1015 -79.9418 341° North  Level FlightAware Approximate
11:08AM 50.1506 -79.9683 341° North  Level FlightAware Approximate
11:09AM 50.1997 -79.9948 341° North  Level FlightAware Approximate
11:10AM 50.2489 -80.0214 341° North  Level FlightAware Approximate
11:11AM 50.2980 -80.0481 341° North  Level FlightAware Approximate
11:12AM 50.3471 -80.0748 341° North  Level FlightAware Approximate
11:13AM 50.3962 -80.1016 341° North  Level FlightAware Approximate
11:14AM 50.4453 -80.1285 341° North  Level FlightAware Approximate
11:15AM 50.4944 -80.1553 341° North  Level FlightAware Approximate
11:16AM 50.5435 -80.1823 341° North  Level FlightAware Approximate
11:17AM 50.5926 -80.2093 341° North  Level FlightAware Approximate
11:18AM 50.6417 -80.2364 341° North  Level FlightAware Approximate
11:19AM 50.6908 -80.2635 341° North  Level FlightAware Approximate
11:20AM 50.7398 -80.2906 341° North  Level FlightAware Approximate
11:21AM 50.7889 -80.3179 341° North  Level FlightAware Approximate
11:22AM 50.8378 -80.3460 339° North  Level FlightAware Approximate
11:23AM 50.8864 -80.3752 339° North  Level FlightAware Approximate
11:24AM 50.9349 -80.4051 339° North  Level FlightAware Approximate
11:25AM 50.9832 -80.4353 339° North  Level FlightAware Approximate
11:26AM 51.0316 -80.4656 339° North  Level FlightAware Approximate
11:27AM 51.0813 -80.4855 339° North  Level FlightAware Approximate
11:28AM 51.1300 -80.5147 339° North  Level FlightAware Approximate
11:29AM 51.1796 -80.5398 343° North  Level FlightAware Approximate
11:30AM 51.2286 -80.5671 339° North  Level FlightAware Approximate
11:31AM 51.2773 -80.5964 339° North  Level FlightAware Approximate
11:32AM 51.2833 -80.6000 339° North  Level FlightAware Approximate
11:33AM 51.2911 -80.6078 339° North  Level Estimated
11:34AM 51.2911 -80.6078 339° North  Level Estimated
11:35AM 51.2911 -80.6078 339° North  Level Estimated
11:36AM 51.2911 -80.6078 339° North  Level Estimated
11:37AM 51.2911 -80.6078 339° North  Level Estimated
11:38AM 51.2911 -80.6078 339° North  Level Estimated
11:39AM 51.2911 -80.6078 339° North  Level Estimated
11:40AM 51.2911 -80.6078 339° North  Level Estimated
11:41AM 51.2911 -80.6078 339° North  Level Estimated
11:42AM 51.2911 -80.6078 339° North  Level Estimated
11:43AM 51.2911 -80.6078 339° North  Level Estimated
11:44AM 51.2911 -80.6078 339° North  Level Estimated
11:45AM 51.2911 -80.6078 339° North  Level Estimated